Time;durP1;ratioP1;P1;durP2;ratioP2;P2;SDS_P1;SDS_P2;PMS_P1;PMS_P2;Temp;Humidity;BMP_temperature;BMP_pressure;BME280_temperature;BME280_humidity;BME280_pressure;Samples;Min_cycle;Max_cycle;Signal;HPM_P1;HPM_P2
2024/01/13 00:01:22;;;;;;;11.73;7.20;;;4.90;99.90;;;;;;6211016;23;20007;-73
2024/01/13 00:04:08;;;;;;;11.48;6.40;;;4.90;99.90;;;;;;6189042;23;20016;-73
2024/01/13 00:06:54;;;;;;;16.33;7.68;;;4.90;99.90;;;;;;6212021;23;20019;-74
2024/01/13 00:09:40;;;;;;;15.77;6.90;;;4.90;99.90;;;;;;6213347;23;20004;-74
2024/01/13 00:12:26;;;;;;;11.27;6.63;;;4.90;99.90;;;;;;6213053;23;20360;-73
2024/01/13 00:15:12;;;;;;;11.10;6.47;;;4.90;99.90;;;;;;6189919;23;20318;-73
2024/01/13 00:17:58;;;;;;;11.38;6.75;;;4.90;99.90;;;;;;6190607;23;20013;-73
2024/01/13 00:20:44;;;;;;;15.63;6.03;;;4.90;99.90;;;;;;6211074;23;20084;-73
2024/01/13 00:23:30;;;;;;;16.98;7.32;;;4.90;99.90;;;;;;6212212;23;20044;-73
2024/01/13 00:26:16;;;;;;;16.52;7.53;;;4.90;99.90;;;;;;6211290;23;20016;-73
2024/01/13 00:29:02;;;;;;;17.17;7.22;;;4.80;99.90;;;;;;6211494;23;20263;-72
2024/01/13 00:31:47;;;;;;;16.20;7.25;;;4.90;99.90;;;;;;6210489;23;20431;-73
2024/01/13 00:34:33;;;;;;;11.93;6.80;;;4.90;99.90;;;;;;6192706;23;20083;-73
2024/01/13 00:37:19;;;;;;;13.48;7.32;;;4.90;99.90;;;;;;6210943;23;20027;-73
2024/01/13 00:40:06;;;;;;;13.45;6.10;;;4.90;99.90;;;;;;6211700;23;20337;-73
2024/01/13 00:42:52;;;;;;;14.40;7.13;;;4.90;99.90;;;;;;6212796;23;20005;-73
2024/01/13 00:45:38;;;;;;;14.13;6.40;;;4.90;99.90;;;;;;6210996;23;20074;-72
2024/01/13 00:48:24;;;;;;;14.93;7.03;;;4.90;99.90;;;;;;6211028;23;20020;-72
2024/01/13 00:51:11;;;;;;;14.77;6.65;;;5.00;99.90;;;;;;6211522;23;20019;-72
2024/01/13 00:53:57;;;;;;;12.18;6.15;;;4.90;99.90;;;;;;6211338;23;20016;-72
2024/01/13 00:56:43;;;;;;;16.75;7.40;;;5.00;99.90;;;;;;6211804;23;20005;-72
2024/01/13 00:59:29;;;;;;;18.58;7.35;;;5.00;99.90;;;;;;6211261;23;20140;-74
2024/01/13 01:02:14;;;;;;;11.07;6.50;;;5.00;99.90;;;;;;6212726;23;20004;-75
2024/01/13 01:05:00;;;;;;;9.98;6.38;;;5.00;99.90;;;;;;6215116;23;20110;-74
2024/01/13 01:07:47;;;;;;;12.48;5.50;;;5.00;99.90;;;;;;6216367;23;20052;-73
2024/01/13 01:10:33;;;;;;;15.63;5.43;;;5.00;99.90;;;;;;6229924;23;20009;-75
2024/01/13 01:13:19;;;;;;;16.10;6.97;;;5.00;99.90;;;;;;6230565;23;20019;-74
2024/01/13 01:16:05;;;;;;;8.85;5.60;;;5.00;99.90;;;;;;6213560;23;20434;-75
2024/01/13 01:18:52;;;;;;;15.10;6.32;;;5.00;99.90;;;;;;6212236;23;20036;-75
2024/01/13 01:21:38;;;;;;;12.73;5.63;;;5.00;99.90;;;;;;6189266;23;20012;-74
2024/01/13 01:24:24;;;;;;;12.88;5.63;;;5.00;99.90;;;;;;6210305;23;20440;-75
2024/01/13 01:27:10;;;;;;;13.27;5.93;;;5.10;99.90;;;;;;6211739;23;20012;-75
2024/01/13 01:29:56;;;;;;;12.20;5.75;;;5.00;99.90;;;;;;6210707;23;20039;-75
2024/01/13 01:32:42;;;;;;;9.80;5.63;;;4.90;99.90;;;;;;6211956;23;20074;-75
2024/01/13 01:35:28;;;;;;;11.70;5.53;;;5.00;99.90;;;;;;6213431;23;20001;-74
2024/01/13 01:38:14;;;;;;;11.98;5.63;;;5.10;99.90;;;;;;6210527;23;20013;-74
2024/01/13 01:40:59;;;;;;;9.23;4.88;;;5.10;99.90;;;;;;6212052;23;20445;-74
2024/01/13 01:43:46;;;;;;;10.88;5.30;;;5.10;99.90;;;;;;6209112;23;20342;-72
2024/01/13 01:46:33;;;;;;;9.98;4.85;;;5.10;99.90;;;;;;6210407;23;20099;-72
2024/01/13 01:49:19;;;;;;;13.52;5.97;;;5.10;99.90;;;;;;6211406;23;20331;-72
2024/01/13 01:52:05;;;;;;;12.13;4.90;;;5.10;99.90;;;;;;6210182;23;20139;-72
2024/01/13 01:54:51;;;;;;;9.40;4.65;;;5.20;99.90;;;;;;6211685;23;20052;-72
2024/01/13 01:57:40;;;;;;;9.68;5.07;;;5.20;99.90;;;;;;6210026;23;20457;-73
2024/01/13 02:00:27;;;;;;;10.15;5.57;;;5.20;99.90;;;;;;6210137;23;20028;-73
2024/01/13 02:03:13;;;;;;;8.65;4.75;;;5.20;99.90;;;;;;6211215;23;20011;-74
2024/01/13 02:06:02;;;;;;;10.05;4.18;;;5.20;99.90;;;;;;6209266;23;20023;-73
2024/01/13 02:08:48;;;;;;;9.75;4.00;;;5.20;99.90;;;;;;6209704;23;20002;-73
2024/01/13 02:11:34;;;;;;;11.48;4.20;;;5.30;99.90;;;;;;6211980;23;20040;-73
2024/01/13 02:14:20;;;;;;;7.50;4.25;;;5.30;99.90;;;;;;6210071;23;20016;-72
2024/01/13 02:17:07;;;;;;;9.55;4.00;;;5.30;99.90;;;;;;6211054;23;20433;-71
2024/01/13 02:19:52;;;;;;;11.93;4.13;;;5.30;99.90;;;;;;6211302;23;20091;-72
2024/01/13 02:22:38;;;;;;;10.60;4.57;;;5.30;99.90;;;;;;6209123;23;20038;-71
2024/01/13 02:25:24;;;;;;;6.03;3.90;;;5.30;99.90;;;;;;6210090;23;20020;-71
2024/01/13 02:28:10;;;;;;;6.38;3.80;;;5.30;99.90;;;;;;6211126;23;20012;-71
2024/01/13 02:30:56;;;;;;;7.43;3.72;;;5.30;99.90;;;;;;6210604;23;20036;-71
2024/01/13 02:33:42;;;;;;;6.00;3.28;;;5.30;99.90;;;;;;6212001;23;20009;-71
2024/01/13 02:36:28;;;;;;;8.57;4.32;;;5.20;99.90;;;;;;6209687;23;20019;-71
2024/01/13 02:39:14;;;;;;;8.85;4.10;;;5.20;99.90;;;;;;6191464;23;20008;-71
2024/01/13 02:42:00;;;;;;;6.18;3.75;;;5.30;99.90;;;;;;6209400;23;20108;-71
2024/01/13 02:44:45;;;;;;;10.20;4.50;;;5.30;99.90;;;;;;6209465;23;20013;-70
2024/01/13 02:47:45;;;;;;;13.52;5.13;;;5.20;99.90;;;;;;6208445;23;20099;-70
2024/01/13 02:50:31;;;;;;;13.13;5.40;;;5.30;99.90;;;;;;6211536;23;20319;-70
2024/01/13 02:53:17;;;;;;;10.77;3.92;;;5.20;99.90;;;;;;6210458;23;20001;-70
2024/01/13 02:56:03;;;;;;;8.32;4.10;;;5.30;99.90;;;;;;6209217;23;20066;-69
2024/01/13 02:58:49;;;;;;;8.10;4.03;;;5.20;99.90;;;;;;6209067;23;20005;-70
2024/01/13 03:01:35;;;;;;;6.82;4.05;;;5.20;99.90;;;;;;6210213;23;20004;-70
2024/01/13 03:04:21;;;;;;;5.80;3.45;;;5.30;99.90;;;;;;6209522;23;20028;-71
2024/01/13 03:07:09;;;;;;;6.50;2.90;;;5.30;99.90;;;;;;6211671;23;20012;-71
2024/01/13 03:09:55;;;;;;;6.20;3.38;;;5.30;99.90;;;;;;6209154;23;20004;-71
2024/01/13 03:12:41;;;;;;;6.18;3.50;;;5.30;99.90;;;;;;6210160;23;20011;-71
2024/01/13 03:15:27;;;;;;;4.70;3.10;;;5.30;99.90;;;;;;6210205;23;20141;-71
2024/01/13 03:18:13;;;;;;;4.57;3.13;;;5.30;99.90;;;;;;6209418;23;20058;-70
2024/01/13 03:20:59;;;;;;;6.28;3.22;;;5.30;99.90;;;;;;6209355;23;20009;-71
2024/01/13 03:23:45;;;;;;;5.85;3.08;;;5.30;99.90;;;;;;6209540;23;20082;-70
2024/01/13 03:26:31;;;;;;;5.00;2.78;;;5.20;99.90;;;;;;6209893;23;20342;-73
2024/01/13 03:29:17;;;;;;;5.68;2.67;;;5.20;99.90;;;;;;6212015;23;20304;-74
2024/01/13 03:32:03;;;;;;;6.93;2.97;;;5.20;99.90;;;;;;6212741;23;20401;-72
2024/01/13 03:34:49;;;;;;;5.90;3.50;;;5.20;99.90;;;;;;6211016;23;20091;-73
2024/01/13 03:37:35;;;;;;;5.05;2.95;;;5.20;99.90;;;;;;6211411;23;20008;-74
2024/01/13 03:40:20;;;;;;;5.05;3.22;;;5.20;99.90;;;;;;6213204;23;20004;-73
2024/01/13 03:43:06;;;;;;;4.57;3.08;;;5.20;99.90;;;;;;6211086;23;20008;-74
2024/01/13 03:45:53;;;;;;;5.40;3.13;;;5.30;99.90;;;;;;6187836;23;20013;-73
2024/01/13 03:48:39;;;;;;;5.53;2.90;;;5.20;99.90;;;;;;6212300;23;20008;-70
2024/01/13 03:51:25;;;;;;;6.20;4.07;;;5.30;99.90;;;;;;6212353;23;20087;-71
2024/01/13 03:54:10;;;;;;;5.65;3.80;;;5.20;99.90;;;;;;6210846;23;20000;-70
2024/01/13 03:57:00;;;;;;;7.00;4.10;;;5.20;99.90;;;;;;6213167;23;20036;-71
2024/01/13 03:59:46;;;;;;;6.97;3.75;;;5.20;99.90;;;;;;6210602;23;20056;-64
2024/01/13 04:02:33;;;;;;;7.88;3.53;;;5.30;99.90;;;;;;6226840;23;20036;-64
2024/01/13 04:05:18;;;;;;;5.65;3.53;;;5.30;99.90;;;;;;6225744;23;20398;-64
2024/01/13 04:08:05;;;;;;;5.63;3.35;;;5.20;99.90;;;;;;6212947;23;20036;-65
2024/01/13 04:10:51;;;;;;;6.47;4.38;;;5.20;99.90;;;;;;6211413;23;20028;-64
2024/01/13 04:13:37;;;;;;;5.75;3.47;;;5.20;99.90;;;;;;6210511;23;20420;-64
2024/01/13 04:16:23;;;;;;;5.22;3.90;;;5.20;99.90;;;;;;6211672;23;20008;-64
2024/01/13 04:19:10;;;;;;;5.38;3.60;;;5.20;99.90;;;;;;6212947;23;20087;-64
2024/01/13 04:21:56;;;;;;;5.53;3.65;;;5.20;99.90;;;;;;6192028;23;20009;-64
2024/01/13 04:24:42;;;;;;;5.45;3.72;;;5.10;99.90;;;;;;6210690;23;20017;-64
2024/01/13 04:27:28;;;;;;;4.57;3.63;;;5.10;99.90;;;;;;6211622;23;20031;-64
2024/01/13 04:30:14;;;;;;;5.13;3.35;;;5.20;99.90;;;;;;6210311;23;20054;-64
2024/01/13 04:33:00;;;;;;;5.95;3.58;;;5.20;99.90;;;;;;6213010;23;20004;-64
2024/01/13 04:35:46;;;;;;;4.55;3.10;;;5.20;99.90;;;;;;6212283;23;20039;-64
2024/01/13 04:38:32;;;;;;;4.85;3.30;;;5.10;99.90;;;;;;6208849;23;20040;-64
2024/01/13 04:41:18;;;;;;;6.30;3.95;;;5.10;99.90;;;;;;6212792;23;20000;-64
2024/01/13 04:44:04;;;;;;;4.90;3.17;;;5.10;99.90;;;;;;6210489;23;20087;-64
2024/01/13 04:46:50;;;;;;;5.80;3.42;;;5.10;99.90;;;;;;6211890;23;20028;-64
2024/01/13 04:49:36;;;;;;;5.30;3.28;;;5.10;99.90;;;;;;6211012;23;20008;-64
2024/01/13 04:52:22;;;;;;;6.00;3.33;;;5.10;99.90;;;;;;6210261;23;20103;-64
2024/01/13 04:55:08;;;;;;;5.15;3.55;;;5.00;99.90;;;;;;6210004;23;20016;-64
2024/01/13 04:57:53;;;;;;;5.72;3.60;;;5.00;99.90;;;;;;6210856;23;20028;-64
2024/01/13 05:00:39;;;;;;;4.75;3.38;;;5.00;99.90;;;;;;6210492;23;20008;-64
2024/01/13 05:03:25;;;;;;;5.38;3.10;;;5.00;99.90;;;;;;6211188;23;20008;-64
2024/01/13 05:06:11;;;;;;;6.38;2.97;;;5.00;99.90;;;;;;6211598;23;20430;-63
2024/01/13 05:08:59;;;;;;;5.47;3.53;;;5.00;99.90;;;;;;6210846;23;20004;-64
2024/01/13 05:11:45;;;;;;;5.05;3.33;;;5.00;99.90;;;;;;6212304;23;20015;-64
2024/01/13 05:14:31;;;;;;;4.78;3.10;;;5.00;99.90;;;;;;6210780;23;20384;-63
2024/01/13 05:17:17;;;;;;;5.80;3.15;;;5.00;99.90;;;;;;6209408;23;20008;-63
2024/01/13 05:20:04;;;;;;;7.70;3.42;;;5.00;99.90;;;;;;6210420;23;20433;-63
2024/01/13 05:22:51;;;;;;;4.57;2.90;;;5.00;99.90;;;;;;6212515;23;20008;-63
2024/01/13 05:25:37;;;;;;;4.53;3.00;;;5.00;99.90;;;;;;6210226;23;20473;-63
2024/01/13 05:28:24;;;;;;;5.28;3.22;;;5.00;99.90;;;;;;6209878;23;20004;-64
2024/01/13 05:31:10;;;;;;;5.28;3.10;;;5.00;99.90;;;;;;6211876;23;20011;-63
2024/01/13 05:33:56;;;;;;;6.70;4.07;;;5.00;99.90;;;;;;6211192;23;20000;-64
2024/01/13 05:36:42;;;;;;;4.75;2.95;;;5.00;99.90;;;;;;6210214;23;20001;-64
2024/01/13 05:39:28;;;;;;;4.82;3.33;;;5.00;99.90;;;;;;6210574;23;20054;-64
2024/01/13 05:42:14;;;;;;;5.55;3.33;;;5.00;99.90;;;;;;6210489;23;20032;-63
2024/01/13 05:45:00;;;;;;;5.63;3.30;;;5.00;99.90;;;;;;6210460;23;20020;-64
2024/01/13 05:47:46;;;;;;;4.45;2.80;;;4.90;99.90;;;;;;6210930;23;20088;-63
2024/01/13 05:50:32;;;;;;;4.72;2.90;;;4.90;99.90;;;;;;6209984;23;20500;-64
2024/01/13 05:53:18;;;;;;;5.10;3.65;;;5.00;99.90;;;;;;6210247;23;20433;-63
2024/01/13 05:56:06;;;;;;;4.65;3.03;;;5.00;99.90;;;;;;6209944;23;20012;-63
2024/01/13 05:58:52;;;;;;;6.88;4.00;;;5.00;99.90;;;;;;6211376;23;20005;-64
2024/01/13 06:01:38;;;;;;;6.32;3.75;;;5.00;99.90;;;;;;6212412;23;20005;-63
2024/01/13 06:04:24;;;;;;;5.70;3.80;;;5.00;99.90;;;;;;6210906;23;20032;-64
2024/01/13 06:07:10;;;;;;;5.43;3.38;;;5.00;99.90;;;;;;6210636;23;20039;-63
2024/01/13 06:09:56;;;;;;;7.25;4.47;;;5.00;99.90;;;;;;6209439;23;20032;-63
2024/01/13 06:12:45;;;;;;;6.03;3.72;;;5.00;99.90;;;;;;6211434;23;20087;-63
2024/01/13 08:53:27;;;;;;;3.08;1.95;;;5.00;99.90;;;;;;6239194;22;20016;-64
2024/01/13 08:56:16;;;;;;;4.55;2.40;;;5.10;99.90;;;;;;6240317;23;20023;-63
2024/01/13 08:59:03;;;;;;;3.25;2.40;;;5.20;99.90;;;;;;6240249;23;20031;-63
2024/01/13 09:01:48;;;;;;;4.72;2.50;;;5.20;99.90;;;;;;6240946;23;20011;-63
2024/01/13 09:04:35;;;;;;;3.80;2.17;;;5.30;99.90;;;;;;6239986;23;20008;-62
2024/01/13 09:07:21;;;;;;;3.20;1.92;;;5.30;99.90;;;;;;6240246;23;20099;-63
2024/01/13 09:10:07;;;;;;;5.53;2.53;;;5.30;99.90;;;;;;6240960;23;20377;-63
2024/01/13 09:12:53;;;;;;;3.85;2.30;;;5.30;99.90;;;;;;6240312;23;20008;-63
2024/01/13 09:15:39;;;;;;;3.63;2.08;;;5.30;99.90;;;;;;6241034;23;20027;-64
2024/01/13 09:18:25;;;;;;;3.05;2.05;;;5.30;99.90;;;;;;6236995;23;20035;-63
2024/01/13 09:21:12;;;;;;;4.25;2.72;;;5.20;99.90;;;;;;6240314;23;20406;-62
2024/01/13 09:24:00;;;;;;;3.45;2.30;;;5.30;99.90;;;;;;6239964;23;20400;-61
2024/01/13 09:26:46;;;;;;;3.83;1.95;;;5.30;99.90;;;;;;6239702;23;20024;-62
2024/01/13 09:29:32;;;;;;;3.15;2.20;;;5.40;99.90;;;;;;6216671;23;20427;-63
2024/01/13 09:32:18;;;;;;;4.95;2.40;;;5.50;99.90;;;;;;6240538;23;20367;-63
2024/01/13 09:35:04;;;;;;;3.63;2.17;;;5.50;99.90;;;;;;6240059;23;20012;-64
2024/01/13 09:37:50;;;;;;;3.35;2.30;;;5.60;99.90;;;;;;6240642;23;20012;-63
2024/01/13 09:40:41;;;;;;;6.65;3.03;;;5.60;99.90;;;;;;6239142;23;20011;-63
2024/01/13 09:43:49;;;;;;;3.13;2.15;;;5.50;99.90;;;;;;6219248;23;20469;-63
2024/01/13 09:46:35;;;;;;;3.45;2.20;;;5.60;99.90;;;;;;6220014;23;20031;-63
2024/01/13 09:49:24;;;;;;;3.50;2.30;;;5.60;99.90;;;;;;6238689;23;20009;-63
2024/01/13 09:52:10;;;;;;;3.90;2.50;;;5.60;99.90;;;;;;6238994;23;20015;-64
2024/01/13 09:55:00;;;;;;;3.30;2.30;;;5.60;99.90;;;;;;6240359;23;20071;-63
2024/01/13 09:57:46;;;;;;;3.38;2.42;;;5.60;99.90;;;;;;6241559;23;20403;-63
2024/01/13 10:00:34;;;;;;;4.18;2.47;;;5.60;99.90;;;;;;6241242;23;20008;-62
2024/01/13 10:03:20;;;;;;;3.90;2.40;;;5.60;99.90;;;;;;6242184;23;20012;-62
2024/01/13 10:06:07;;;;;;;5.57;2.42;;;5.70;99.90;;;;;;6241266;23;20024;-63
2024/01/13 10:08:53;;;;;;;3.33;2.30;;;5.70;99.90;;;;;;6242121;23;20093;-63
2024/01/13 10:11:39;;;;;;;3.42;2.30;;;5.80;99.90;;;;;;6240106;23;20008;-63
2024/01/13 10:14:24;;;;;;;4.43;2.30;;;5.90;99.90;;;;;;6266641;23;20004;-63
2024/01/13 10:17:11;;;;;;;2.95;2.13;;;5.80;99.90;;;;;;6258027;23;20314;-63
2024/01/13 10:19:57;;;;;;;4.05;2.47;;;5.80;99.90;;;;;;6241246;23;20487;-63
2024/01/13 10:22:43;;;;;;;3.60;2.30;;;5.90;99.90;;;;;;6240175;23;20008;-63
2024/01/13 10:25:29;;;;;;;3.40;2.10;;;5.90;99.90;;;;;;6241845;23;20123;-63
2024/01/13 10:28:15;;;;;;;4.18;2.40;;;5.90;99.90;;;;;;6242021;23;20004;-63
2024/01/13 10:31:02;;;;;;;3.90;2.40;;;5.80;99.90;;;;;;6240236;23;20035;-63
2024/01/13 10:33:48;;;;;;;3.38;2.25;;;5.80;99.90;;;;;;6241282;23;20008;-64
2024/01/13 10:36:35;;;;;;;9.93;2.58;;;5.80;99.90;;;;;;6240754;23;20445;-63
2024/01/13 10:39:20;;;;;;;4.47;1.85;;;5.80;99.90;;;;;;6239693;23;20031;-64
2024/01/13 10:42:13;;;;;;;2.60;1.75;;;5.80;99.90;;;;;;6241510;23;20016;-64
2024/01/13 10:45:02;;;;;;;3.05;2.13;;;5.80;99.90;;;;;;6243010;23;20549;-64
2024/01/13 10:47:52;;;;;;;3.50;2.40;;;5.80;99.90;;;;;;6243268;23;20008;-64
2024/01/13 10:50:39;;;;;;;2.92;2.10;;;5.80;99.90;;;;;;6242807;23;20083;-63
2024/01/13 10:53:28;;;;;;;3.03;2.08;;;5.80;99.90;;;;;;6241129;23;20024;-64
2024/01/13 10:56:15;;;;;;;3.78;2.17;;;5.90;99.90;;;;;;6244759;23;20393;-64
2024/01/13 10:59:02;;;;;;;4.10;2.80;;;5.90;99.90;;;;;;6244054;23;20198;-64
2024/01/13 11:01:49;;;;;;;3.35;1.98;;;5.90;99.90;;;;;;6243445;23;20012;-64
2024/01/13 11:04:35;;;;;;;2.72;1.95;;;5.90;99.90;;;;;;6221310;23;20015;-64
2024/01/13 11:07:21;;;;;;;3.38;2.20;;;5.90;99.90;;;;;;6242002;23;20027;-64
2024/01/13 11:10:13;;;;;;;3.00;1.92;;;5.90;99.90;;;;;;6241635;23;20012;-65
2024/01/13 11:13:11;;;;;;;5.38;1.92;;;5.90;99.90;;;;;;6242837;23;20627;-64
2024/01/13 11:16:08;;;;;;;2.35;1.73;;;6.00;99.90;;;;;;6243434;23;20090;-64
2024/01/13 11:18:57;;;;;;;2.40;1.77;;;6.00;99.90;;;;;;6243212;23;20062;-66
2024/01/13 11:21:48;;;;;;;3.55;2.42;;;6.00;99.90;;;;;;6243923;23;20008;-64
2024/01/13 11:24:35;;;;;;;2.67;1.70;;;6.00;99.90;;;;;;6219018;23;20484;-64
2024/01/13 11:27:22;;;;;;;2.22;1.80;;;6.00;99.90;;;;;;6221365;23;20027;-64
2024/01/13 11:30:10;;;;;;;3.00;1.90;;;6.00;99.90;;;;;;6220995;23;20004;-64
2024/01/13 11:32:58;;;;;;;2.55;1.83;;;5.90;99.90;;;;;;6243171;23;20070;-65
2024/01/13 11:35:50;;;;;;;2.13;1.58;;;5.90;99.90;;;;;;6241367;23;20016;-64
2024/01/13 11:38:36;;;;;;;3.83;1.92;;;6.00;99.90;;;;;;6241590;23;20047;-64
2024/01/13 11:41:22;;;;;;;2.58;1.90;;;6.00;99.90;;;;;;6241390;23;20008;-65
2024/01/13 11:44:09;;;;;;;2.92;1.90;;;6.00;99.90;;;;;;6243293;23;20066;-65
2024/01/13 11:46:57;;;;;;;4.88;2.00;;;6.00;99.90;;;;;;6242200;23;20070;-64
2024/01/13 11:49:44;;;;;;;4.20;1.85;;;6.00;99.90;;;;;;6240743;23;20012;-64
2024/01/13 11:52:31;;;;;;;3.22;2.13;;;6.00;99.90;;;;;;6242859;23;20019;-64
2024/01/13 11:55:17;;;;;;;2.67;1.90;;;6.00;99.90;;;;;;6241840;23;20075;-65
2024/01/13 11:58:03;;;;;;;3.65;1.90;;;6.00;99.90;;;;;;6242256;23;20008;-65
2024/01/13 12:00:49;;;;;;;2.92;1.92;;;6.00;99.90;;;;;;6240560;23;20084;-64
2024/01/13 12:03:40;;;;;;;2.25;1.80;;;6.00;99.90;;;;;;6220032;23;20394;-65
2024/01/13 12:06:26;;;;;;;3.33;1.80;;;6.00;99.90;;;;;;6234063;23;20047;-64
2024/01/13 12:09:12;;;;;;;2.75;1.80;;;6.00;99.90;;;;;;6240837;23;20004;-65
2024/01/13 12:12:00;;;;;;;4.50;1.80;;;6.00;99.90;;;;;;6241269;23;20008;-67
2024/01/13 12:14:46;;;;;;;2.40;1.75;;;6.00;99.90;;;;;;6242233;23;20083;-69
2024/01/13 12:17:32;;;;;;;2.50;1.70;;;6.00;99.90;;;;;;6241915;23;20011;-65
2024/01/13 12:20:18;;;;;;;2.25;1.70;;;6.00;99.90;;;;;;6217591;23;20012;-64
2024/01/13 12:23:04;;;;;;;2.35;1.80;;;6.00;99.90;;;;;;6242498;23;20004;-65
2024/01/13 12:25:53;;;;;;;2.40;1.60;;;6.00;99.90;;;;;;6237135;23;20020;-65
2024/01/13 12:28:42;;;;;;;3.38;1.75;;;6.00;99.90;;;;;;6241097;23;20004;-66
2024/01/13 12:31:28;;;;;;;3.45;1.92;;;6.00;99.90;;;;;;6243505;23;20012;-66
2024/01/13 12:34:15;;;;;;;3.30;1.92;;;6.10;99.90;;;;;;6241646;23;20087;-65
2024/01/13 12:37:03;;;;;;;2.60;1.70;;;6.10;99.90;;;;;;6220678;23;20012;-64
2024/01/13 12:39:50;;;;;;;1.73;1.27;;;6.10;99.90;;;;;;6243024;23;20008;-64
2024/01/13 12:42:40;;;;;;;2.00;1.60;;;6.20;99.90;;;;;;6241732;23;20398;-64
2024/01/13 12:45:26;;;;;;;3.10;2.00;;;6.20;99.90;;;;;;6240882;23;20020;-64
2024/01/13 12:48:12;;;;;;;3.60;2.30;;;6.20;99.90;;;;;;6242863;23;20091;-64
2024/01/13 12:51:09;;;;;;;3.80;2.45;;;6.10;99.90;;;;;;6241868;23;20016;-65
2024/01/13 12:53:55;;;;;;;3.80;1.85;;;6.10;99.90;;;;;;6242024;23;20353;-65
2024/01/13 12:56:42;;;;;;;3.35;1.80;;;6.10;99.90;;;;;;6243093;23;20004;-65
2024/01/13 12:59:29;;;;;;;2.10;1.63;;;6.10;99.90;;;;;;6242983;23;20008;-66
2024/01/13 13:02:15;;;;;;;3.25;1.83;;;6.10;99.90;;;;;;6241031;23;20027;-65
2024/01/13 13:05:02;;;;;;;3.25;1.77;;;6.10;99.90;;;;;;6238495;23;20027;-65
2024/01/13 13:07:48;;;;;;;3.45;2.25;;;6.10;99.90;;;;;;6244613;22;20012;-66
2024/01/13 13:10:34;;;;;;;3.20;1.80;;;6.00;99.90;;;;;;6241998;23;20317;-65
2024/01/13 13:13:21;;;;;;;2.05;1.55;;;6.00;99.90;;;;;;6242243;23;20325;-65
2024/01/13 13:16:08;;;;;;;2.92;1.65;;;5.90;99.90;;;;;;6242569;23;20087;-65
2024/01/13 13:18:54;;;;;;;3.22;2.05;;;6.00;99.90;;;;;;6220043;23;20008;-66
2024/01/13 13:21:40;;;;;;;2.78;1.85;;;5.90;99.90;;;;;;6238967;23;20066;-65
2024/01/13 13:24:26;;;;;;;3.20;2.00;;;5.80;99.90;;;;;;6213714;23;20008;-65
2024/01/13 13:27:13;;;;;;;3.75;2.15;;;5.80;99.90;;;;;;6261966;23;20055;-65
2024/01/13 13:29:58;;;;;;;2.58;1.90;;;5.80;99.90;;;;;;6266995;23;20048;-65
2024/01/13 13:32:44;;;;;;;2.30;1.90;;;5.80;99.90;;;;;;6244950;23;20012;-65
2024/01/13 13:35:30;;;;;;;1.90;1.63;;;5.80;99.90;;;;;;6240677;23;20345;-65
2024/01/13 13:38:16;;;;;;;3.95;2.25;;;5.80;99.90;;;;;;6239938;23;20377;-65
2024/01/13 13:41:03;;;;;;;3.58;2.08;;;5.80;99.90;;;;;;6235430;23;20012;-65
2024/01/13 13:43:49;;;;;;;2.58;1.73;;;5.90;99.90;;;;;;6240697;23;20016;-66
2024/01/13 13:46:36;;;;;;;3.83;2.20;;;5.90;99.90;;;;;;6242577;23;20086;-65
2024/01/13 13:49:21;;;;;;;3.45;2.00;;;5.80;99.90;;;;;;6219152;23;20011;-65
2024/01/13 13:52:08;;;;;;;2.75;1.73;;;5.80;99.90;;;;;;6239265;22;20012;-65
2024/01/13 13:54:54;;;;;;;3.20;2.33;;;5.90;99.90;;;;;;6241900;23;20559;-65
2024/01/13 13:57:39;;;;;;;3.00;1.90;;;5.80;99.90;;;;;;6240141;23;20030;-72
2024/01/13 14:00:25;;;;;;;5.85;3.15;;;5.80;99.90;;;;;;6240097;23;20063;-72
2024/01/13 14:03:11;;;;;;;3.15;2.05;;;5.70;99.90;;;;;;6240586;23;20387;-74
2024/01/13 14:05:57;;;;;;;5.32;2.42;;;5.70;99.90;;;;;;6242153;23;20027;-74
2024/01/13 14:08:43;;;;;;;2.90;2.30;;;5.70;99.90;;;;;;6238399;23;20066;-73
2024/01/13 14:11:36;;;;;;;3.45;2.00;;;5.60;99.90;;;;;;6219865;23;20043;-74
2024/01/13 14:14:23;;;;;;;3.35;2.40;;;5.70;99.90;;;;;;6219114;23;20012;-75
2024/01/13 14:17:10;;;;;;;3.47;2.38;;;5.60;99.90;;;;;;6241832;23;20200;-73
2024/01/13 14:19:56;;;;;;;4.55;2.35;;;5.60;99.90;;;;;;6242006;23;20361;-74
2024/01/13 14:22:42;;;;;;;3.33;2.15;;;5.60;99.90;;;;;;6241740;23;20048;-74
2024/01/13 14:25:29;;;;;;;3.97;2.50;;;5.60;99.90;;;;;;6240061;23;20051;-74
2024/01/13 14:28:17;;;;;;;4.10;2.55;;;5.60;99.90;;;;;;6240226;23;20456;-74
2024/01/13 14:31:06;;;;;;;4.15;2.60;;;5.60;99.90;;;;;;6240802;23;20018;-74
2024/01/13 14:33:52;;;;;;;5.25;3.00;;;5.50;99.90;;;;;;6219800;23;20091;-74
2024/01/13 14:36:38;;;;;;;3.97;2.90;;;5.50;99.90;;;;;;6242117;23;20024;-74
2024/01/13 14:39:23;;;;;;;4.40;3.10;;;5.50;99.90;;;;;;6240048;23;20008;-74
2024/01/13 14:42:09;;;;;;;6.10;2.88;;;5.50;99.90;;;;;;6239872;23;20067;-73
2024/01/13 14:44:55;;;;;;;5.45;3.65;;;5.50;99.90;;;;;;6241261;23;20026;-75
2024/01/13 14:47:42;;;;;;;5.03;3.50;;;5.50;99.90;;;;;;6238596;23;20008;-75
2024/01/13 14:50:28;;;;;;;5.05;3.60;;;5.50;99.90;;;;;;6240110;23;20490;-74
2024/01/13 14:53:15;;;;;;;5.65;2.70;;;5.50;99.90;;;;;;6219516;23;20024;-75
2024/01/13 14:56:03;;;;;;;6.03;3.58;;;5.50;99.90;;;;;;6219528;23;20345;-75
2024/01/13 14:58:51;;;;;;;5.25;3.63;;;5.50;99.90;;;;;;6240317;23;20012;-75
2024/01/13 15:01:37;;;;;;;5.97;4.05;;;5.50;99.90;;;;;;6238990;23;20019;-75
2024/01/13 15:04:24;;;;;;;5.72;3.85;;;5.50;99.90;;;;;;6240107;23;20070;-75
2024/01/13 15:07:10;;;;;;;4.68;3.88;;;5.50;99.90;;;;;;6240254;23;20519;-74
2024/01/13 15:09:56;;;;;;;6.95;4.40;;;5.50;99.90;;;;;;6219336;23;20345;-71
2024/01/13 15:12:43;;;;;;;5.07;3.83;;;5.40;99.90;;;;;;6239583;23;20008;-73
2024/01/13 15:15:29;;;;;;;6.57;4.68;;;5.40;99.90;;;;;;6239228;23;20012;-71
2024/01/13 15:18:15;;;;;;;6.63;4.70;;;5.40;99.90;;;;;;6239413;23;20015;-71
2024/01/13 15:21:00;;;;;;;5.35;4.35;;;5.50;99.90;;;;;;6242279;23;20091;-70
2024/01/13 15:23:47;;;;;;;6.07;4.43;;;5.50;99.90;;;;;;6242847;23;20019;-73
2024/01/13 15:26:33;;;;;;;5.18;4.47;;;5.40;99.90;;;;;;6221276;23;20016;-72
2024/01/13 15:29:19;;;;;;;5.72;4.45;;;5.50;99.90;;;;;;6221718;23;20004;-75
2024/01/13 15:32:05;;;;;;;7.22;5.80;;;5.40;99.90;;;;;;6241474;23;20102;-74
2024/01/13 15:34:53;;;;;;;6.57;5.38;;;5.40;99.90;;;;;;6241000;23;20004;-77
2024/01/13 15:37:39;;;;;;;6.40;5.60;;;5.50;99.90;;;;;;6240902;23;20364;-77
2024/01/13 15:40:25;;;;;;;7.30;5.78;;;5.40;99.90;;;;;;6241709;23;20074;-76
2024/01/13 15:43:11;;;;;;;8.43;6.15;;;5.40;99.90;;;;;;6215900;23;20012;-76
2024/01/13 15:45:57;;;;;;;8.23;6.07;;;5.50;99.90;;;;;;6242053;23;20066;-76
2024/01/13 15:48:43;;;;;;;8.73;5.70;;;5.50;99.90;;;;;;6241261;23;20032;-76
2024/01/13 15:51:29;;;;;;;7.35;5.93;;;5.50;99.90;;;;;;6241647;23;20019;-75
2024/01/13 15:54:15;;;;;;;6.45;4.95;;;5.40;99.90;;;;;;6241209;23;20024;-77
2024/01/13 15:57:01;;;;;;;9.07;6.53;;;5.40;99.90;;;;;;6221133;23;20108;-79
2024/01/13 15:59:47;;;;;;;8.52;5.85;;;5.40;99.90;;;;;;6241822;23;20004;-78
2024/01/13 16:02:33;;;;;;;9.90;5.97;;;5.40;99.90;;;;;;6220939;23;20008;-79
2024/01/13 16:05:19;;;;;;;11.10;6.20;;;5.40;99.90;;;;;;6243356;23;20019;-79
2024/01/13 16:08:05;;;;;;;6.70;5.82;;;5.40;99.90;;;;;;6243944;23;20012;-78
2024/01/13 16:10:52;;;;;;;6.90;5.65;;;5.40;99.90;;;;;;6219227;23;20012;-79
2024/01/13 16:13:38;;;;;;;8.07;5.60;;;5.40;99.90;;;;;;6241104;23;20074;-78
2024/01/13 16:16:28;;;;;;;7.68;5.38;;;5.40;99.90;;;;;;6241463;23;20012;-79
2024/01/13 16:19:14;;;;;;;7.97;5.43;;;5.40;99.90;;;;;;6220863;23;20050;-79
2024/01/13 16:22:00;;;;;;;8.90;6.15;;;5.50;99.90;;;;;;6243163;23;20010;-79
2024/01/13 16:24:46;;;;;;;8.32;6.28;;;5.50;99.90;;;;;;6242765;23;20088;-78
2024/01/13 16:27:32;;;;;;;7.82;6.00;;;5.40;99.90;;;;;;6241476;23;20170;-79
2024/01/13 16:30:19;;;;;;;8.70;6.47;;;5.40;99.90;;;;;;6220146;23;20009;-79
2024/01/13 16:33:05;;;;;;;9.63;6.03;;;5.40;99.90;;;;;;6242109;23;20016;-78
2024/01/13 16:35:51;;;;;;;9.30;6.60;;;5.40;99.90;;;;;;6241942;23;20019;-78
2024/01/13 16:38:36;;;;;;;8.32;6.10;;;5.40;99.90;;;;;;6242842;23;20510;-82
2024/01/13 16:41:23;;;;;;;7.97;5.80;;;5.50;99.90;;;;;;6250371;23;20011;-80
2024/01/13 16:44:09;;;;;;;7.10;5.30;;;5.40;99.90;;;;;;6245714;23;20023;-79
2024/01/13 16:46:55;;;;;;;8.07;5.68;;;5.40;99.90;;;;;;6249628;23;20016;-80
2024/01/13 16:49:41;;;;;;;7.95;6.00;;;5.40;99.90;;;;;;6225789;23;20038;-80
2024/01/13 16:52:27;;;;;;;7.35;5.10;;;5.50;99.90;;;;;;6247331;23;20066;-79
2024/01/13 16:55:13;;;;;;;8.43;5.88;;;5.40;99.90;;;;;;6224374;23;20008;-73
2024/01/13 16:57:59;;;;;;;6.60;5.40;;;5.40;99.90;;;;;;6247434;23;20007;-70
2024/01/13 17:00:45;;;;;;;7.22;4.80;;;5.40;99.90;;;;;;6262340;23;20095;-68
2024/01/13 17:03:31;;;;;;;6.90;5.07;;;5.40;99.90;;;;;;6246508;23;20069;-67
2024/01/13 17:06:17;;;;;;;8.93;5.40;;;5.40;99.90;;;;;;6245837;23;20016;-67
2024/01/13 17:09:03;;;;;;;7.10;5.13;;;5.40;99.90;;;;;;6242617;23;20008;-70
2024/01/13 17:11:49;;;;;;;6.95;4.70;;;5.40;99.90;;;;;;6219516;23;20012;-66
2024/01/13 17:14:35;;;;;;;5.68;4.68;;;5.40;99.90;;;;;;6240361;23;20008;-68